sensor_id;sensor_type;location;lat;lon;timestamp;P1;durP1;ratioP1;P2;durP2;ratioP2
77870;SDS011;67067;46.850;7.578;2023-07-02T00:00:56;7.28;;;3.70;;
77870;SDS011;67067;46.850;7.578;2023-07-02T00:01:58;6.72;;;3.55;;
77870;SDS011;67067;46.850;7.578;2023-07-02T00:03:00;4.80;;;3.90;;
77870;SDS011;67067;46.850;7.578;2023-07-02T00:04:05;9.00;;;4.00;;
77870;SDS011;67067;46.850;7.578;2023-07-02T00:05:10;6.25;;;3.70;;
77870;SDS011;67067;46.850;7.578;2023-07-02T00:07:13;8.73;;;4.00;;
77870;SDS011;67067;46.850;7.578;2023-07-02T00:08:16;6.00;;;3.72;;
77870;SDS011;67067;46.850;7.578;2023-07-02T00:10:20;5.15;;;3.67;;
77870;SDS011;67067;46.850;7.578;2023-07-02T00:11:24;5.43;;;3.65;;
77870;SDS011;67067;46.850;7.578;2023-07-02T00:13:27;6.30;;;3.65;;
77870;SDS011;67067;46.850;7.578;2023-07-02T00:14:29;5.90;;;3.72;;
77870;SDS011;67067;46.850;7.578;2023-07-02T00:16:32;4.30;;;3.90;;
77870;SDS011;67067;46.850;7.578;2023-07-02T00:17:34;3.88;;;3.58;;
77870;SDS011;67067;46.850;7.578;2023-07-02T00:19:38;5.87;;;3.93;;
77870;SDS011;67067;46.850;7.578;2023-07-02T00:20:43;6.10;;;3.53;;
77870;SDS011;67067;46.850;7.578;2023-07-02T00:21:47;8.52;;;3.60;;
77870;SDS011;67067;46.850;7.578;2023-07-02T00:22:49;4.35;;;3.60;;
77870;SDS011;67067;46.850;7.578;2023-07-02T00:24:52;10.75;;;3.67;;
77870;SDS011;67067;46.850;7.578;2023-07-02T00:25:57;4.13;;;3.67;;
77870;SDS011;67067;46.850;7.578;2023-07-02T00:26:59;5.82;;;3.50;;
77870;SDS011;67067;46.850;7.578;2023-07-02T00:28:03;6.05;;;3.60;;
77870;SDS011;67067;46.850;7.578;2023-07-02T00:29:05;5.13;;;3.28;;
77870;SDS011;67067;46.850;7.578;2023-07-02T00:30:11;6.35;;;3.80;;
77870;SDS011;67067;46.850;7.578;2023-07-02T00:31:13;3.53;;;3.30;;
77870;SDS011;67067;46.850;7.578;2023-07-02T00:33:16;4.80;;;3.47;;
77870;SDS011;67067;46.850;7.578;2023-07-02T00:34:19;3.63;;;2.95;;
77870;SDS011;67067;46.850;7.578;2023-07-02T00:35:21;5.28;;;3.40;;
77870;SDS011;67067;46.850;7.578;2023-07-02T00:36:23;5.30;;;3.88;;
77870;SDS011;67067;46.850;7.578;2023-07-02T00:38:26;5.10;;;3.23;;
77870;SDS011;67067;46.850;7.578;2023-07-02T00:40:31;3.78;;;3.35;;
77870;SDS011;67067;46.850;7.578;2023-07-02T00:42:35;4.55;;;3.28;;
77870;SDS011;67067;46.850;7.578;2023-07-02T00:43:37;3.85;;;3.45;;
77870;SDS011;67067;46.850;7.578;2023-07-02T00:44:45;3.60;;;3.30;;
77870;SDS011;67067;46.850;7.578;2023-07-02T00:45:47;6.43;;;3.53;;
77870;SDS011;67067;46.850;7.578;2023-07-02T00:47:54;3.78;;;3.47;;
77870;SDS011;67067;46.850;7.578;2023-07-02T00:48:56;3.85;;;3.47;;
77870;SDS011;67067;46.850;7.578;2023-07-02T00:49:58;4.05;;;3.65;;
77870;SDS011;67067;46.850;7.578;2023-07-02T00:51:03;4.20;;;3.28;;
77870;SDS011;67067;46.850;7.578;2023-07-02T00:52:05;4.55;;;4.15;;
77870;SDS011;67067;46.850;7.578;2023-07-02T00:53:07;3.85;;;3.42;;
77870;SDS011;67067;46.850;7.578;2023-07-02T00:54:11;5.45;;;3.63;;
77870;SDS011;67067;46.850;7.578;2023-07-02T00:56:17;4.55;;;3.10;;
77870;SDS011;67067;46.850;7.578;2023-07-02T00:57:23;4.82;;;3.58;;
77870;SDS011;67067;46.850;7.578;2023-07-02T00:58:31;3.67;;;3.38;;
77870;SDS011;67067;46.850;7.578;2023-07-02T00:59:35;7.10;;;3.70;;
77870;SDS011;67067;46.850;7.578;2023-07-02T01:00:39;3.90;;;3.60;;
77870;SDS011;67067;46.850;7.578;2023-07-02T01:01:41;4.68;;;3.30;;
77870;SDS011;67067;46.850;7.578;2023-07-02T01:02:46;4.13;;;3.30;;
77870;SDS011;67067;46.850;7.578;2023-07-02T01:03:59;6.90;;;3.53;;
77870;SDS011;67067;46.850;7.578;2023-07-02T01:05:03;4.28;;;3.40;;
77870;SDS011;67067;46.850;7.578;2023-07-02T01:06:08;4.65;;;3.20;;
77870;SDS011;67067;46.850;7.578;2023-07-02T01:07:10;5.35;;;3.83;;
77870;SDS011;67067;46.850;7.578;2023-07-02T01:08:12;8.20;;;3.38;;
77870;SDS011;67067;46.850;7.578;2023-07-02T01:09:15;3.50;;;3.20;;
77870;SDS011;67067;46.850;7.578;2023-07-02T01:10:17;6.35;;;3.90;;
77870;SDS011;67067;46.850;7.578;2023-07-02T01:11:19;6.20;;;4.32;;
77870;SDS011;67067;46.850;7.578;2023-07-02T01:12:23;3.95;;;3.65;;
77870;SDS011;67067;46.850;7.578;2023-07-02T01:13:25;5.32;;;3.90;;
77870;SDS011;67067;46.850;7.578;2023-07-02T01:14:40;6.70;;;4.25;;
77870;SDS011;67067;46.850;7.578;2023-07-02T01:15:45;4.22;;;3.75;;
77870;SDS011;67067;46.850;7.578;2023-07-02T01:16:47;4.55;;;4.00;;
77870;SDS011;67067;46.850;7.578;2023-07-02T01:17:53;4.30;;;3.90;;
77870;SDS011;67067;46.850;7.578;2023-07-02T01:18:56;4.15;;;3.55;;
77870;SDS011;67067;46.850;7.578;2023-07-02T01:19:58;4.50;;;3.60;;
77870;SDS011;67067;46.850;7.578;2023-07-02T01:21:02;4.40;;;3.70;;
77870;SDS011;67067;46.850;7.578;2023-07-02T01:22:07;5.40;;;3.80;;
77870;SDS011;67067;46.850;7.578;2023-07-02T01:23:12;5.70;;;3.80;;
77870;SDS011;67067;46.850;7.578;2023-07-02T01:24:21;3.75;;;3.45;;
77870;SDS011;67067;46.850;7.578;2023-07-02T01:25:24;5.30;;;4.10;;
77870;SDS011;67067;46.850;7.578;2023-07-02T01:27:38;4.40;;;4.00;;
77870;SDS011;67067;46.850;7.578;2023-07-02T01:28:41;4.30;;;3.90;;
77870;SDS011;67067;46.850;7.578;2023-07-02T01:29:43;5.00;;;4.03;;
77870;SDS011;67067;46.850;7.578;2023-07-02T01:30:46;5.68;;;4.00;;
77870;SDS011;67067;46.850;7.578;2023-07-02T01:31:48;4.60;;;3.95;;
77870;SDS011;67067;46.850;7.578;2023-07-02T01:33:52;4.35;;;3.92;;
77870;SDS011;67067;46.850;7.578;2023-07-02T01:34:54;4.20;;;3.80;;
77870;SDS011;67067;46.850;7.578;2023-07-02T01:35:56;4.22;;;3.83;;
77870;SDS011;67067;46.850;7.578;2023-07-02T01:36:58;4.47;;;4.00;;
77870;SDS011;67067;46.850;7.578;2023-07-02T01:38:00;8.02;;;4.28;;
77870;SDS011;67067;46.850;7.578;2023-07-02T01:39:04;4.00;;;3.70;;
77870;SDS011;67067;46.850;7.578;2023-07-02T01:40:06;6.45;;;4.20;;
77870;SDS011;67067;46.850;7.578;2023-07-02T01:41:10;3.80;;;3.50;;
77870;SDS011;67067;46.850;7.578;2023-07-02T01:43:13;4.40;;;3.63;;
77870;SDS011;67067;46.850;7.578;2023-07-02T01:44:15;4.60;;;3.80;;
77870;SDS011;67067;46.850;7.578;2023-07-02T01:45:17;5.32;;;4.47;;
77870;SDS011;67067;46.850;7.578;2023-07-02T01:46:23;6.72;;;3.97;;
77870;SDS011;67067;46.850;7.578;2023-07-02T01:47:25;4.93;;;3.90;;
77870;SDS011;67067;46.850;7.578;2023-07-02T01:48:27;4.75;;;3.80;;
77870;SDS011;67067;46.850;7.578;2023-07-02T01:49:28;5.63;;;3.85;;
77870;SDS011;67067;46.850;7.578;2023-07-02T01:51:32;5.33;;;3.83;;
77870;SDS011;67067;46.850;7.578;2023-07-02T01:52:38;4.70;;;4.20;;
77870;SDS011;67067;46.850;7.578;2023-07-02T01:54:44;5.00;;;3.90;;
77870;SDS011;67067;46.850;7.578;2023-07-02T01:55:49;4.40;;;3.95;;
77870;SDS011;67067;46.850;7.578;2023-07-02T01:56:52;4.68;;;3.92;;
77870;SDS011;67067;46.850;7.578;2023-07-02T01:57:54;5.50;;;3.80;;
77870;SDS011;67067;46.850;7.578;2023-07-02T01:59:57;4.50;;;3.97;;
77870;SDS011;67067;46.850;7.578;2023-07-02T02:01:01;5.70;;;4.05;;
77870;SDS011;67067;46.850;7.578;2023-07-02T02:02:06;6.95;;;3.92;;
77870;SDS011;67067;46.850;7.578;2023-07-02T02:03:10;4.32;;;3.92;;
77870;SDS011;67067;46.850;7.578;2023-07-02T02:05:13;6.15;;;4.38;;
77870;SDS011;67067;46.850;7.578;2023-07-02T02:06:17;4.82;;;4.22;;
77870;SDS011;67067;46.850;7.578;2023-07-02T02:07:19;4.78;;;3.92;;
77870;SDS011;67067;46.850;7.578;2023-07-02T02:09:23;5.28;;;3.90;;
77870;SDS011;67067;46.850;7.578;2023-07-02T02:10:27;5.63;;;4.18;;
77870;SDS011;67067;46.850;7.578;2023-07-02T02:11:32;5.78;;;4.10;;
77870;SDS011;67067;46.850;7.578;2023-07-02T02:12:35;4.13;;;3.72;;
77870;SDS011;67067;46.850;7.578;2023-07-02T02:13:40;5.28;;;4.03;;
77870;SDS011;67067;46.850;7.578;2023-07-02T02:14:44;5.25;;;3.88;;
77870;SDS011;67067;46.850;7.578;2023-07-02T02:16:48;4.90;;;4.20;;
77870;SDS011;67067;46.850;7.578;2023-07-02T02:17:50;4.32;;;3.85;;
77870;SDS011;67067;46.850;7.578;2023-07-02T02:18:52;4.15;;;3.75;;
77870;SDS011;67067;46.850;7.578;2023-07-02T02:19:54;6.15;;;4.35;;
77870;SDS011;67067;46.850;7.578;2023-07-02T02:20:57;4.15;;;3.60;;
77870;SDS011;67067;46.850;7.578;2023-07-02T02:22:01;4.60;;;3.80;;
77870;SDS011;67067;46.850;7.578;2023-07-02T02:24:05;4.53;;;3.92;;
77870;SDS011;67067;46.850;7.578;2023-07-02T02:25:08;4.38;;;3.97;;
77870;SDS011;67067;46.850;7.578;2023-07-02T02:26:10;5.30;;;3.50;;
77870;SDS011;67067;46.850;7.578;2023-07-02T02:28:14;6.93;;;3.73;;
77870;SDS011;67067;46.850;7.578;2023-07-02T02:29:15;4.63;;;3.83;;
77870;SDS011;67067;46.850;7.578;2023-07-02T02:30:18;5.78;;;4.00;;
77870;SDS011;67067;46.850;7.578;2023-07-02T02:31:20;4.32;;;3.55;;
77870;SDS011;67067;46.850;7.578;2023-07-02T02:32:21;4.00;;;3.70;;
77870;SDS011;67067;46.850;7.578;2023-07-02T02:33:23;4.10;;;3.70;;
77870;SDS011;67067;46.850;7.578;2023-07-02T02:34:28;5.40;;;3.65;;
77870;SDS011;67067;46.850;7.578;2023-07-02T02:35:31;5.07;;;3.70;;
77870;SDS011;67067;46.850;7.578;2023-07-02T02:37:37;4.70;;;3.80;;
77870;SDS011;67067;46.850;7.578;2023-07-02T02:38:41;4.68;;;3.75;;
77870;SDS011;67067;46.850;7.578;2023-07-02T02:40:45;6.10;;;3.67;;
77870;SDS011;67067;46.850;7.578;2023-07-02T02:41:50;4.43;;;3.75;;
77870;SDS011;67067;46.850;7.578;2023-07-02T02:42:55;4.60;;;4.15;;
77870;SDS011;67067;46.850;7.578;2023-07-02T02:44:00;5.10;;;3.70;;
77870;SDS011;67067;46.850;7.578;2023-07-02T02:45:04;4.38;;;3.88;;
77870;SDS011;67067;46.850;7.578;2023-07-02T02:46:06;5.40;;;3.85;;
77870;SDS011;67067;46.850;7.578;2023-07-02T02:47:10;3.85;;;3.55;;
77870;SDS011;67067;46.850;7.578;2023-07-02T02:49:13;4.45;;;4.05;;
77870;SDS011;67067;46.850;7.578;2023-07-02T02:51:19;4.07;;;3.78;;
77870;SDS011;67067;46.850;7.578;2023-07-02T02:52:21;5.53;;;4.00;;
77870;SDS011;67067;46.850;7.578;2023-07-02T02:53:23;5.32;;;3.80;;
77870;SDS011;67067;46.850;7.578;2023-07-02T02:54:27;4.32;;;3.92;;
77870;SDS011;67067;46.850;7.578;2023-07-02T02:56:31;5.40;;;4.00;;
77870;SDS011;67067;46.850;7.578;2023-07-02T02:58:34;4.45;;;4.05;;
77870;SDS011;67067;46.850;7.578;2023-07-02T02:59:36;5.55;;;3.92;;
77870;SDS011;67067;46.850;7.578;2023-07-02T03:00:38;4.68;;;4.22;;
77870;SDS011;67067;46.850;7.578;2023-07-02T03:01:43;4.68;;;4.18;;
77870;SDS011;67067;46.850;7.578;2023-07-02T03:02:45;6.80;;;4.35;;
77870;SDS011;67067;46.850;7.578;2023-07-02T03:03:50;6.18;;;4.60;;
77870;SDS011;67067;46.850;7.578;2023-07-02T03:04:55;6.55;;;4.57;;
77870;SDS011;67067;46.850;7.578;2023-07-02T03:06:03;6.53;;;4.47;;
77870;SDS011;67067;46.850;7.578;2023-07-02T03:07:07;6.05;;;4.60;;
77870;SDS011;67067;46.850;7.578;2023-07-02T03:08:14;6.25;;;4.60;;
77870;SDS011;67067;46.850;7.578;2023-07-02T03:09:16;5.68;;;4.50;;
77870;SDS011;67067;46.850;7.578;2023-07-02T03:10:18;5.10;;;4.60;;
77870;SDS011;67067;46.850;7.578;2023-07-02T03:11:20;7.85;;;4.85;;
77870;SDS011;67067;46.850;7.578;2023-07-02T03:12:27;7.43;;;4.65;;
77870;SDS011;67067;46.850;7.578;2023-07-02T03:13:29;6.13;;;4.80;;
77870;SDS011;67067;46.850;7.578;2023-07-02T03:15:32;6.30;;;4.90;;
77870;SDS011;67067;46.850;7.578;2023-07-02T03:16:33;7.82;;;5.13;;
77870;SDS011;67067;46.850;7.578;2023-07-02T03:17:35;6.40;;;5.10;;
77870;SDS011;67067;46.850;7.578;2023-07-02T03:18:37;7.85;;;5.45;;
77870;SDS011;67067;46.850;7.578;2023-07-02T03:19:40;6.90;;;5.25;;
77870;SDS011;67067;46.850;7.578;2023-07-02T03:22:46;9.15;;;5.63;;
77870;SDS011;67067;46.850;7.578;2023-07-02T03:23:48;11.65;;;6.78;;
77870;SDS011;67067;46.850;7.578;2023-07-02T03:24:50;8.07;;;5.82;;
77870;SDS011;67067;46.850;7.578;2023-07-02T03:26:53;7.78;;;5.53;;
77870;SDS011;67067;46.850;7.578;2023-07-02T03:28:57;9.30;;;5.75;;
77870;SDS011;67067;46.850;7.578;2023-07-02T03:29:58;12.73;;;6.13;;
77870;SDS011;67067;46.850;7.578;2023-07-02T03:31:02;9.60;;;5.88;;
77870;SDS011;67067;46.850;7.578;2023-07-02T03:32:07;9.50;;;6.43;;
77870;SDS011;67067;46.850;7.578;2023-07-02T03:33:09;8.98;;;5.15;;
77870;SDS011;67067;46.850;7.578;2023-07-02T03:34:13;11.75;;;5.70;;
77870;SDS011;67067;46.850;7.578;2023-07-02T03:36:17;8.77;;;5.43;;
77870;SDS011;67067;46.850;7.578;2023-07-02T03:38:20;8.25;;;5.97;;
77870;SDS011;67067;46.850;7.578;2023-07-02T03:39:22;10.95;;;6.10;;
77870;SDS011;67067;46.850;7.578;2023-07-02T03:41:25;8.93;;;5.77;;
77870;SDS011;67067;46.850;7.578;2023-07-02T03:42:27;7.70;;;5.60;;
77870;SDS011;67067;46.850;7.578;2023-07-02T03:44:30;9.33;;;6.00;;
77870;SDS011;67067;46.850;7.578;2023-07-02T03:46:34;8.70;;;6.03;;
77870;SDS011;67067;46.850;7.578;2023-07-02T03:47:38;7.93;;;5.65;;
77870;SDS011;67067;46.850;7.578;2023-07-02T03:48:40;9.05;;;4.97;;
77870;SDS011;67067;46.850;7.578;2023-07-02T03:49:42;9.13;;;5.75;;
77870;SDS011;67067;46.850;7.578;2023-07-02T03:50:46;7.60;;;5.53;;
77870;SDS011;67067;46.850;7.578;2023-07-02T03:51:48;10.20;;;5.80;;
77870;SDS011;67067;46.850;7.578;2023-07-02T03:53:54;8.13;;;6.07;;
77870;SDS011;67067;46.850;7.578;2023-07-02T03:54:56;7.28;;;5.38;;
77870;SDS011;67067;46.850;7.578;2023-07-02T03:57:01;6.65;;;5.32;;
77870;SDS011;67067;46.850;7.578;2023-07-02T03:58:03;6.85;;;5.35;;
77870;SDS011;67067;46.850;7.578;2023-07-02T03:59:05;7.13;;;5.40;;
77870;SDS011;67067;46.850;7.578;2023-07-02T04:00:07;9.20;;;5.97;;
77870;SDS011;67067;46.850;7.578;2023-07-02T04:01:17;7.90;;;5.68;;
77870;SDS011;67067;46.850;7.578;2023-07-02T04:03:20;12.43;;;6.37;;
77870;SDS011;67067;46.850;7.578;2023-07-02T04:04:27;7.97;;;5.93;;
77870;SDS011;67067;46.850;7.578;2023-07-02T04:05:32;9.35;;;6.07;;
77870;SDS011;67067;46.850;7.578;2023-07-02T04:07:37;8.43;;;6.10;;
77870;SDS011;67067;46.850;7.578;2023-07-02T04:08:39;9.05;;;5.90;;
77870;SDS011;67067;46.850;7.578;2023-07-02T04:10:42;8.80;;;6.05;;
77870;SDS011;67067;46.850;7.578;2023-07-02T04:11:46;8.73;;;5.72;;
77870;SDS011;67067;46.850;7.578;2023-07-02T04:13:50;9.95;;;6.18;;
77870;SDS011;67067;46.850;7.578;2023-07-02T04:14:54;9.27;;;6.35;;
77870;SDS011;67067;46.850;7.578;2023-07-02T04:15:59;8.52;;;6.20;;
77870;SDS011;67067;46.850;7.578;2023-07-02T04:17:03;11.45;;;6.50;;
77870;SDS011;67067;46.850;7.578;2023-07-02T04:18:05;9.75;;;6.13;;
77870;SDS011;67067;46.850;7.578;2023-07-02T04:20:11;10.57;;;6.50;;
77870;SDS011;67067;46.850;7.578;2023-07-02T04:21:15;9.52;;;6.72;;
77870;SDS011;67067;46.850;7.578;2023-07-02T04:22:20;10.40;;;7.10;;
77870;SDS011;67067;46.850;7.578;2023-07-02T04:23:22;12.50;;;7.00;;
77870;SDS011;67067;46.850;7.578;2023-07-02T04:24:24;10.07;;;6.60;;
77870;SDS011;67067;46.850;7.578;2023-07-02T04:25:30;12.30;;;7.13;;
77870;SDS011;67067;46.850;7.578;2023-07-02T04:26:54;11.85;;;7.15;;
77870;SDS011;67067;46.850;7.578;2023-07-02T04:28:16;9.80;;;6.57;;
77870;SDS011;67067;46.850;7.578;2023-07-02T04:29:18;11.23;;;7.13;;
77870;SDS011;67067;46.850;7.578;2023-07-02T04:30:20;14.25;;;7.00;;
77870;SDS011;67067;46.850;7.578;2023-07-02T04:32:23;11.38;;;7.32;;
77870;SDS011;67067;46.850;7.578;2023-07-02T04:33:27;11.15;;;7.05;;
77870;SDS011;67067;46.850;7.578;2023-07-02T04:34:37;11.52;;;7.45;;
77870;SDS011;67067;46.850;7.578;2023-07-02T04:36:40;13.07;;;7.20;;
77870;SDS011;67067;46.850;7.578;2023-07-02T04:37:44;11.20;;;6.78;;
77870;SDS011;67067;46.850;7.578;2023-07-02T04:38:48;8.80;;;6.43;;
77870;SDS011;67067;46.850;7.578;2023-07-02T04:40:54;12.95;;;6.47;;
77870;SDS011;67067;46.850;7.578;2023-07-02T04:42:57;9.77;;;6.60;;
77870;SDS011;67067;46.850;7.578;2023-07-02T04:43:59;11.23;;;6.78;;
77870;SDS011;67067;46.850;7.578;2023-07-02T04:46:04;8.20;;;5.93;;
77870;SDS011;67067;46.850;7.578;2023-07-02T04:47:09;11.52;;;6.80;;
77870;SDS011;67067;46.850;7.578;2023-07-02T04:49:17;11.00;;;6.78;;
77870;SDS011;67067;46.850;7.578;2023-07-02T04:51:20;10.20;;;6.50;;
77870;SDS011;67067;46.850;7.578;2023-07-02T04:52:23;9.18;;;6.35;;
77870;SDS011;67067;46.850;7.578;2023-07-02T04:53:27;15.15;;;6.53;;
77870;SDS011;67067;46.850;7.578;2023-07-02T04:54:31;11.05;;;6.30;;
77870;SDS011;67067;46.850;7.578;2023-07-02T04:55:33;7.55;;;6.03;;
77870;SDS011;67067;46.850;7.578;2023-07-02T04:57:36;8.73;;;5.82;;
77870;SDS011;67067;46.850;7.578;2023-07-02T04:58:38;8.43;;;6.35;;
77870;SDS011;67067;46.850;7.578;2023-07-02T04:59:42;10.48;;;6.47;;
77870;SDS011;67067;46.850;7.578;2023-07-02T05:00:44;10.32;;;6.65;;
77870;SDS011;67067;46.850;7.578;2023-07-02T05:01:46;8.73;;;6.32;;
77870;SDS011;67067;46.850;7.578;2023-07-02T05:03:51;8.75;;;6.30;;
77870;SDS011;67067;46.850;7.578;2023-07-02T05:04:53;11.18;;;6.68;;
77870;SDS011;67067;46.850;7.578;2023-07-02T05:05:58;10.23;;;6.43;;
77870;SDS011;67067;46.850;7.578;2023-07-02T05:07:00;9.27;;;5.97;;
77870;SDS011;67067;46.850;7.578;2023-07-02T05:08:01;10.60;;;6.47;;
77870;SDS011;67067;46.850;7.578;2023-07-02T05:09:06;10.02;;;6.22;;
77870;SDS011;67067;46.850;7.578;2023-07-02T05:10:08;9.38;;;5.93;;
77870;SDS011;67067;46.850;7.578;2023-07-02T05:11:12;11.13;;;6.35;;
77870;SDS011;67067;46.850;7.578;2023-07-02T05:13:15;8.67;;;6.13;;
77870;SDS011;67067;46.850;7.578;2023-07-02T05:15:19;9.32;;;6.07;;
77870;SDS011;67067;46.850;7.578;2023-07-02T05:16:23;9.48;;;6.05;;
77870;SDS011;67067;46.850;7.578;2023-07-02T05:17:27;9.60;;;5.88;;
77870;SDS011;67067;46.850;7.578;2023-07-02T05:18:29;9.85;;;5.85;;
77870;SDS011;67067;46.850;7.578;2023-07-02T05:19:34;9.38;;;5.88;;
77870;SDS011;67067;46.850;7.578;2023-07-02T05:21:37;9.10;;;5.93;;
77870;SDS011;67067;46.850;7.578;2023-07-02T05:23:40;10.40;;;6.60;;
77870;SDS011;67067;46.850;7.578;2023-07-02T05:24:44;8.70;;;6.38;;
77870;SDS011;67067;46.850;7.578;2023-07-02T05:25:47;9.15;;;6.43;;
77870;SDS011;67067;46.850;7.578;2023-07-02T05:26:53;7.82;;;5.78;;
77870;SDS011;67067;46.850;7.578;2023-07-02T05:27:55;8.90;;;6.03;;
77870;SDS011;67067;46.850;7.578;2023-07-02T05:30:01;10.32;;;6.10;;
77870;SDS011;67067;46.850;7.578;2023-07-02T05:31:03;9.95;;;6.25;;
77870;SDS011;67067;46.850;7.578;2023-07-02T05:32:07;9.23;;;5.78;;
77870;SDS011;67067;46.850;7.578;2023-07-02T05:33:09;9.10;;;6.13;;
77870;SDS011;67067;46.850;7.578;2023-07-02T05:35:15;9.13;;;6.33;;
77870;SDS011;67067;46.850;7.578;2023-07-02T05:36:17;8.73;;;6.13;;
77870;SDS011;67067;46.850;7.578;2023-07-02T05:37:21;9.90;;;6.63;;
77870;SDS011;67067;46.850;7.578;2023-07-02T05:38:27;8.98;;;5.78;;
77870;SDS011;67067;46.850;7.578;2023-07-02T05:39:31;9.18;;;5.97;;
77870;SDS011;67067;46.850;7.578;2023-07-02T05:40:34;9.10;;;6.40;;
77870;SDS011;67067;46.850;7.578;2023-07-02T05:41:38;10.30;;;6.43;;
77870;SDS011;67067;46.850;7.578;2023-07-02T05:42:40;10.80;;;6.43;;
77870;SDS011;67067;46.850;7.578;2023-07-02T05:43:44;10.02;;;6.07;;
77870;SDS011;67067;46.850;7.578;2023-07-02T05:45:52;9.48;;;6.22;;
77870;SDS011;67067;46.850;7.578;2023-07-02T05:46:54;12.27;;;6.40;;
77870;SDS011;67067;46.850;7.578;2023-07-02T05:47:55;10.27;;;6.28;;
77870;SDS011;67067;46.850;7.578;2023-07-02T05:48:57;12.05;;;6.70;;
77870;SDS011;67067;46.850;7.578;2023-07-02T05:50:01;7.47;;;5.90;;
77870;SDS011;67067;46.850;7.578;2023-07-02T05:52:04;8.98;;;6.25;;
77870;SDS011;67067;46.850;7.578;2023-07-02T05:53:06;10.40;;;6.13;;
77870;SDS011;67067;46.850;7.578;2023-07-02T05:54:08;9.65;;;6.50;;
77870;SDS011;67067;46.850;7.578;2023-07-02T05:57:14;9.57;;;5.93;;
77870;SDS011;67067;46.850;7.578;2023-07-02T05:59:19;8.98;;;6.18;;
77870;SDS011;67067;46.850;7.578;2023-07-02T06:00:21;12.77;;;6.45;;
77870;SDS011;67067;46.850;7.578;2023-07-02T06:01:23;7.78;;;6.00;;
77870;SDS011;67067;46.850;7.578;2023-07-02T06:03:26;9.05;;;5.93;;
77870;SDS011;67067;46.850;7.578;2023-07-02T06:04:30;11.93;;;6.22;;
77870;SDS011;67067;46.850;7.578;2023-07-02T06:05:35;9.60;;;6.47;;
77870;SDS011;67067;46.850;7.578;2023-07-02T06:06:39;9.50;;;6.10;;
77870;SDS011;67067;46.850;7.578;2023-07-02T06:08:42;7.95;;;6.10;;
77870;SDS011;67067;46.850;7.578;2023-07-02T06:09:44;8.63;;;5.97;;
77870;SDS011;67067;46.850;7.578;2023-07-02T06:11:49;10.25;;;6.15;;
77870;SDS011;67067;46.850;7.578;2023-07-02T06:13:53;12.23;;;5.90;;
77870;SDS011;67067;46.850;7.578;2023-07-02T06:14:56;8.23;;;5.97;;
77870;SDS011;67067;46.850;7.578;2023-07-02T06:15:58;10.15;;;6.13;;
77870;SDS011;67067;46.850;7.578;2023-07-02T06:18:02;8.45;;;5.65;;
77870;SDS011;67067;46.850;7.578;2023-07-02T06:19:04;7.53;;;5.70;;
77870;SDS011;67067;46.850;7.578;2023-07-02T06:21:08;9.57;;;6.30;;
77870;SDS011;67067;46.850;7.578;2023-07-02T06:22:11;10.52;;;6.50;;
77870;SDS011;67067;46.850;7.578;2023-07-02T06:23:15;9.32;;;6.32;;
77870;SDS011;67067;46.850;7.578;2023-07-02T06:24:16;8.30;;;5.90;;
77870;SDS011;67067;46.850;7.578;2023-07-02T06:25:20;7.93;;;5.80;;
77870;SDS011;67067;46.850;7.578;2023-07-02T06:27:23;9.63;;;5.95;;
77870;SDS011;67067;46.850;7.578;2023-07-02T06:28:26;8.13;;;6.03;;
77870;SDS011;67067;46.850;7.578;2023-07-02T06:29:28;7.35;;;6.00;;
77870;SDS011;67067;46.850;7.578;2023-07-02T06:30:33;9.02;;;6.03;;
77870;SDS011;67067;46.850;7.578;2023-07-02T06:31:35;10.68;;;6.35;;
77870;SDS011;67067;46.850;7.578;2023-07-02T06:32:37;8.27;;;6.30;;
77870;SDS011;67067;46.850;7.578;2023-07-02T06:33:39;10.77;;;6.60;;
77870;SDS011;67067;46.850;7.578;2023-07-02T06:34:44;8.10;;;6.00;;
77870;SDS011;67067;46.850;7.578;2023-07-02T06:35:47;8.27;;;6.43;;
77870;SDS011;67067;46.850;7.578;2023-07-02T06:36:50;8.38;;;6.20;;
77870;SDS011;67067;46.850;7.578;2023-07-02T06:38:53;10.30;;;6.43;;
77870;SDS011;67067;46.850;7.578;2023-07-02T06:40:58;8.80;;;6.20;;
77870;SDS011;67067;46.850;7.578;2023-07-02T06:43:04;9.40;;;6.07;;
77870;SDS011;67067;46.850;7.578;2023-07-02T06:44:05;10.50;;;6.18;;
77870;SDS011;67067;46.850;7.578;2023-07-02T06:45:07;8.35;;;5.75;;
77870;SDS011;67067;46.850;7.578;2023-07-02T06:46:10;7.72;;;5.65;;
77870;SDS011;67067;46.850;7.578;2023-07-02T06:47:14;13.38;;;6.22;;
77870;SDS011;67067;46.850;7.578;2023-07-02T06:49:19;6.90;;;5.63;;
77870;SDS011;67067;46.850;7.578;2023-07-02T06:51:23;6.90;;;5.22;;
77870;SDS011;67067;46.850;7.578;2023-07-02T06:52:28;9.90;;;5.80;;
77870;SDS011;67067;46.850;7.578;2023-07-02T06:54:31;7.90;;;5.75;;
77870;SDS011;67067;46.850;7.578;2023-07-02T06:56:34;9.27;;;5.65;;
